Terminal Aerodrome Forecast
Issued by NWS

Home | Current Version | Previous Version | Text Only | Print | Product List | Glossary On
Versions: 1 2 3 4 5 6 7 8 9 10 11 12 13 14 15 16 17 18 19 20 21 22 23 24 25
000
FTUS41 KILN 031857 AAA
TAFLCK
TAF AMD
KLCK 031857Z 0319/0418 31007KT P6SM VCTS BKN050CB
      TEMPO 0319/0321 5SM -TSRA OVC035CB
     FM040000 VRB03KT P6SM SCT050
     FM040500 VRB03KT 5SM BR VCTS SCT040CB BKN120
      TEMPO 0408/0412 1SM BR
     FM041300 18005KT P6SM VCTS BKN040CB=

USA.gov is the U.S. government's official web portal to all federal, state and local government web resources and services.